Time;durP1;ratioP1;P1;durP2;ratioP2;P2;SDS_P1;SDS_P2;PMS_P1;PMS_P2;Temp;Humidity;BMP_temperature;BMP_pressure;BME280_temperature;BME280_humidity;BME280_pressure;Samples;Min_cycle;Max_cycle;Signal;HPM_P1;HPM_P2
2023/03/21 00:01:52;;;;;;;48.05;21.38;;;;;;;;;;5051425;28;20529;-60
2023/03/21 00:04:18;;;;;;;51.80;22.88;;;;;;;;;;5051572;28;20452;-60
2023/03/21 00:06:45;;;;;;;47.75;21.88;;;;;;;;;;5050904;28;20124;-60
2023/03/21 00:09:11;;;;;;;46.80;22.30;;;;;;;;;;5050877;28;20049;-60
2023/03/21 00:11:37;;;;;;;44.30;21.85;;;;;;;;;;5051226;28;20060;-60
2023/03/21 00:14:07;;;;;;;42.28;21.42;;;;;;;;;;5050765;28;20116;-60
2023/03/21 00:16:34;;;;;;;47.45;22.65;;;;;;;;;;5051286;28;20040;-60
2023/03/21 00:19:02;;;;;;;51.00;22.95;;;;;;;;;;5051013;28;20132;-60
2023/03/21 00:21:31;;;;;;;44.15;23.05;;;;;;;;;;5050319;28;20655;-60
2023/03/21 00:23:57;;;;;;;43.70;22.80;;;;;;;;;;5050937;28;20036;-60
2023/03/21 00:26:24;;;;;;;45.83;22.73;;;;;;;;;;5051020;28;20045;-60
2023/03/21 00:28:50;;;;;;;42.95;22.58;;;;;;;;;;5050037;28;20052;-60
2023/03/21 00:31:16;;;;;;;39.40;21.50;;;;;;;;;;5050841;28;20048;-60
2023/03/21 00:33:43;;;;;;;41.60;21.55;;;;;;;;;;5050910;28;20182;-60
2023/03/21 00:36:09;;;;;;;39.53;21.38;;;;;;;;;;5050329;28;20041;-60
2023/03/21 00:38:36;;;;;;;39.30;21.20;;;;;;;;;;5050680;28;20037;-60
2023/03/21 00:41:09;;;;;;;38.05;21.13;;;;;;;;;;5050493;28;20522;-60
2023/03/21 00:43:36;;;;;;;38.40;21.05;;;;;;;;;;5049958;28;20545;-60
2023/03/21 00:46:02;;;;;;;41.03;21.92;;;;;;;;;;5050736;28;20403;-60
2023/03/21 00:48:29;;;;;;;36.55;20.23;;;;;;;;;;5050242;28;20056;-60
2023/03/21 00:50:56;;;;;;;40.83;21.20;;;;;;;;;;5049729;28;20648;-60
2023/03/21 00:53:22;;;;;;;43.92;21.58;;;;;;;;;;5050543;28;20044;-60
2023/03/21 00:55:48;;;;;;;41.80;21.08;;;;;;;;;;5050583;28;20059;-60
2023/03/21 00:58:15;;;;;;;36.55;19.38;;;;;;;;;;5049923;28;20087;-60
2023/03/21 01:00:42;;;;;;;36.75;19.27;;;;;;;;;;5050194;28;20053;-60
2023/03/21 01:03:10;;;;;;;38.08;18.73;;;;;;;;;;5050567;28;20118;-60
2023/03/21 01:08:27;;;;;;;37.25;18.98;;;;;;;;;;5049961;28;20045;-60
2023/03/21 01:10:53;;;;;;;33.97;17.38;;;;;;;;;;5050159;28;20094;-60
2023/03/21 01:13:21;;;;;;;36.17;17.23;;;;;;;;;;5049788;28;20041;-60
2023/03/21 01:15:48;;;;;;;35.63;17.65;;;;;;;;;;5050210;28;20037;-60
2023/03/21 01:18:15;;;;;;;32.33;16.20;;;;;;;;;;5050512;28;20120;-60
2023/03/21 01:20:43;;;;;;;32.63;17.17;;;;;;;;;;5049444;28;20041;-60
2023/03/21 01:23:10;;;;;;;34.78;17.67;;;;;;;;;;5050055;28;20431;-60
2023/03/21 01:25:36;;;;;;;32.55;17.92;;;;;;;;;;5050246;28;20510;-60
2023/03/21 01:28:02;;;;;;;35.17;17.75;;;;;;;;;;5031397;28;20041;-60
2023/03/21 01:30:28;;;;;;;36.72;18.10;;;;;;;;;;5050045;28;20091;-60
2023/03/21 01:32:54;;;;;;;37.70;18.85;;;;;;;;;;5049988;28;20596;-60
2023/03/21 01:35:20;;;;;;;31.25;17.98;;;;;;;;;;5049621;28;20047;-60
2023/03/21 01:37:47;;;;;;;37.50;18.48;;;;;;;;;;5049830;28;20033;-60
2023/03/21 01:40:18;;;;;;;38.22;18.17;;;;;;;;;;5049690;28;20045;-60
2023/03/21 01:42:44;;;;;;;38.92;19.42;;;;;;;;;;5049332;28;20080;-60
2023/03/21 01:45:29;;;;;;;40.60;18.70;;;;;;;;;;5050092;28;20846;-60
2023/03/21 01:47:55;;;;;;;40.20;19.55;;;;;;;;;;5050021;28;20041;-60
2023/03/21 01:50:21;;;;;;;38.97;20.00;;;;;;;;;;5049374;28;20053;-60
2023/03/21 01:52:49;;;;;;;36.28;18.83;;;;;;;;;;5049964;28;20048;-60
2023/03/21 01:55:15;;;;;;;38.05;19.23;;;;;;;;;;5050123;28;20047;-60
2023/03/21 01:57:47;;;;;;;38.80;19.48;;;;;;;;;;5049213;28;20364;-60
2023/03/21 02:00:14;;;;;;;35.67;18.83;;;;;;;;;;5053151;28;20044;-60
2023/03/21 02:02:54;;;;;;;39.60;20.38;;;;;;;;;;5053674;28;20049;-60
2023/03/21 02:05:46;;;;;;;40.60;20.05;;;;;;;;;;5053017;28;20411;-60
2023/03/21 02:08:12;;;;;;;38.72;20.15;;;;;;;;;;5022631;28;20045;-60
2023/03/21 02:10:40;;;;;;;37.17;18.90;;;;;;;;;;5053109;28;20406;-60
2023/03/21 02:13:08;;;;;;;43.58;21.10;;;;;;;;;;5052892;28;20041;-60
2023/03/21 02:15:38;;;;;;;41.50;19.75;;;;;;;;;;5053580;28;20041;-60
2023/03/21 02:18:05;;;;;;;39.20;20.83;;;;;;;;;;5033510;28;20124;-60
2023/03/21 02:20:31;;;;;;;42.67;20.80;;;;;;;;;;5040321;28;20056;-60
2023/03/21 02:23:00;;;;;;;40.50;21.50;;;;;;;;;;5053090;28;20052;-60
2023/03/21 02:25:43;;;;;;;42.75;20.45;;;;;;;;;;5053159;28;20037;-60
2023/03/21 02:28:09;;;;;;;44.15;21.63;;;;;;;;;;5053194;28;20466;-60
2023/03/21 02:30:45;;;;;;;40.58;20.15;;;;;;;;;;5052943;28;20041;-60
2023/03/21 02:33:26;;;;;;;39.55;19.33;;;;;;;;;;5052507;28;20052;-60
2023/03/21 02:35:52;;;;;;;35.03;18.10;;;;;;;;;;5053059;28;20045;-60
2023/03/21 02:38:24;;;;;;;40.70;19.35;;;;;;;;;;5052994;28;20041;-60
2023/03/21 02:40:53;;;;;;;41.75;18.55;;;;;;;;;;5052296;28;20437;-60
2023/03/21 02:43:19;;;;;;;39.65;19.33;;;;;;;;;;5053165;28;20044;-60
2023/03/21 02:45:49;;;;;;;38.35;18.40;;;;;;;;;;5052834;28;20041;-60
2023/03/21 02:48:18;;;;;;;38.72;20.00;;;;;;;;;;5052302;28;20392;-60
2023/03/21 02:50:52;;;;;;;43.17;21.60;;;;;;;;;;5052732;28;20613;-60
2023/03/21 02:53:23;;;;;;;44.05;20.77;;;;;;;;;;5052313;28;20033;-60
2023/03/21 02:55:51;;;;;;;39.42;19.75;;;;;;;;;;5051978;28;20041;-60
2023/03/21 02:58:19;;;;;;;41.80;20.75;;;;;;;;;;5052815;28;20508;-60
2023/03/21 03:00:47;;;;;;;42.60;20.60;;;;;;;;;;5052436;28;20072;-60
2023/03/21 03:03:14;;;;;;;38.17;18.92;;;;;;;;;;5051773;28;20040;-60
2023/03/21 03:05:46;;;;;;;35.35;17.88;;;;;;;;;;5052551;28;20811;-60
2023/03/21 03:08:33;;;;;;;35.85;18.05;;;;;;;;;;5052659;28;20033;-60
2023/03/21 03:11:04;;;;;;;37.40;17.95;;;;;;;;;;5050691;28;20037;-60
2023/03/21 03:13:33;;;;;;;32.72;17.20;;;;;;;;;;5052228;28;20102;-60
2023/03/21 03:16:18;;;;;;;28.80;15.73;;;;;;;;;;5052296;28;20089;-60
2023/03/21 03:18:47;;;;;;;31.48;15.52;;;;;;;;;;5051425;28;20045;-60
2023/03/21 03:21:13;;;;;;;27.73;15.50;;;;;;;;;;5051983;28;20044;-60
2023/03/21 03:23:44;;;;;;;27.90;14.60;;;;;;;;;;5051458;28;20079;-60
2023/03/21 03:26:14;;;;;;;25.80;14.18;;;;;;;;;;5051448;28;20128;-60
2023/03/21 03:28:49;;;;;;;31.48;14.32;;;;;;;;;;5052009;28;20094;-60
2023/03/21 03:31:20;;;;;;;28.38;14.35;;;;;;;;;;5052073;28;20411;-60
2023/03/21 03:33:50;;;;;;;27.85;14.75;;;;;;;;;;5051056;28;20051;-60
2023/03/21 03:36:17;;;;;;;23.75;13.10;;;;;;;;;;5051799;28;20445;-60
2023/03/21 03:38:46;;;;;;;26.02;14.02;;;;;;;;;;5051981;28;20045;-60
2023/03/21 03:41:17;;;;;;;25.75;13.05;;;;;;;;;;5051181;28;20040;-60
2023/03/21 03:43:47;;;;;;;25.13;13.30;;;;;;;;;;5051597;28;20056;-60
2023/03/21 03:46:17;;;;;;;25.73;13.88;;;;;;;;;;5051775;28;20120;-60
2023/03/21 03:48:48;;;;;;;23.33;13.07;;;;;;;;;;5050916;28;20079;-60
2023/03/21 03:51:24;;;;;;;24.88;13.00;;;;;;;;;;5051825;28;20056;-60
2023/03/21 03:53:56;;;;;;;25.52;13.45;;;;;;;;;;5051309;28;20041;-60
2023/03/21 03:56:24;;;;;;;26.55;13.43;;;;;;;;;;5051014;28;20506;-60
2023/03/21 03:58:50;;;;;;;26.35;13.70;;;;;;;;;;5051570;28;20037;-60
2023/03/21 04:01:16;;;;;;;26.48;13.45;;;;;;;;;;5051479;28;20102;-60
2023/03/21 04:03:44;;;;;;;23.33;13.25;;;;;;;;;;5050307;28;20399;-60
2023/03/21 04:06:10;;;;;;;25.70;13.15;;;;;;;;;;5051175;28;20049;-60
2023/03/21 04:08:37;;;;;;;20.83;12.93;;;;;;;;;;5051460;28;20111;-60
2023/03/21 04:11:03;;;;;;;25.38;12.98;;;;;;;;;;5050690;28;20104;-60
2023/03/21 04:13:29;;;;;;;26.38;14.57;;;;;;;;;;5051086;28;20471;-60
2023/03/21 04:15:56;;;;;;;26.88;13.38;;;;;;;;;;5051308;28;20037;-60
2023/03/21 04:18:22;;;;;;;24.00;13.43;;;;;;;;;;5050457;28;20044;-60
2023/03/21 04:20:50;;;;;;;27.90;14.00;;;;;;;;;;5050963;28;20064;-60
2023/03/21 04:23:18;;;;;;;28.73;15.18;;;;;;;;;;5050488;28;20132;-61
2023/03/21 04:25:44;;;;;;;27.20;14.90;;;;;;;;;;5050350;28;20359;-61
2023/03/21 04:28:12;;;;;;;25.50;14.40;;;;;;;;;;5051027;28;20037;-61
2023/03/21 04:30:38;;;;;;;26.92;15.40;;;;;;;;;;5051148;28;20521;-61
2023/03/21 04:33:04;;;;;;;28.80;16.20;;;;;;;;;;5050026;28;20115;-61
2023/03/21 04:35:30;;;;;;;34.45;17.30;;;;;;;;;;5050868;28;20123;-61
2023/03/21 04:37:56;;;;;;;31.55;16.92;;;;;;;;;;5050791;28;20457;-61
2023/03/21 04:40:24;;;;;;;29.25;17.38;;;;;;;;;;5049617;28;20124;-61
2023/03/21 04:42:50;;;;;;;30.77;17.55;;;;;;;;;;5050795;28;20053;-61
2023/03/21 04:45:16;;;;;;;31.70;18.00;;;;;;;;;;5050895;28;20573;-61
2023/03/21 04:47:44;;;;;;;32.33;18.23;;;;;;;;;;5050060;28;20036;-61
2023/03/21 04:50:12;;;;;;;33.33;18.25;;;;;;;;;;5050728;28;20051;-61
2023/03/21 04:52:38;;;;;;;31.50;18.65;;;;;;;;;;5050509;28;20052;-61
2023/03/21 04:55:04;;;;;;;32.95;19.23;;;;;;;;;;5050086;28;20102;-61
2023/03/21 04:57:30;;;;;;;30.80;18.73;;;;;;;;;;5050373;28;20063;-61
2023/03/21 04:59:56;;;;;;;34.95;19.35;;;;;;;;;;5050660;28;20166;-61
2023/03/21 05:02:23;;;;;;;34.22;19.42;;;;;;;;;;5049885;28;20110;-61
2023/03/21 05:04:49;;;;;;;34.05;20.35;;;;;;;;;;5050318;28;20041;-61
2023/03/21 05:07:15;;;;;;;31.48;19.55;;;;;;;;;;5050656;28;20045;-61
2023/03/21 05:09:41;;;;;;;34.28;19.00;;;;;;;;;;5049545;28;20049;-61
2023/03/21 05:12:07;;;;;;;32.67;19.63;;;;;;;;;;5050193;28;20074;-61
2023/03/21 05:14:33;;;;;;;32.65;19.45;;;;;;;;;;5050239;28;20041;-61
2023/03/21 05:17:03;;;;;;;30.23;18.33;;;;;;;;;;5049827;28;20033;-61
2023/03/21 05:19:33;;;;;;;30.25;19.13;;;;;;;;;;5050570;28;20431;-61
2023/03/21 05:22:09;;;;;;;31.23;20.00;;;;;;;;;;5049959;28;20111;-61
2023/03/21 05:24:38;;;;;;;37.40;21.35;;;;;;;;;;5049474;28;20091;-61
2023/03/21 05:27:04;;;;;;;32.22;19.27;;;;;;;;;;5050438;28;20037;-61
2023/03/21 05:29:31;;;;;;;30.83;18.10;;;;;;;;;;5050355;28;20844;-61
2023/03/21 05:31:58;;;;;;;34.65;19.77;;;;;;;;;;5049775;28;20375;-61
2023/03/21 05:34:25;;;;;;;32.97;19.60;;;;;;;;;;5052255;28;20045;-61
2023/03/21 05:36:52;;;;;;;32.40;19.42;;;;;;;;;;5054101;28;20166;-61
2023/03/21 05:39:19;;;;;;;31.42;19.80;;;;;;;;;;5053444;28;20048;-61
2023/03/21 05:41:45;;;;;;;33.92;19.98;;;;;;;;;;5053788;28;20495;-61
2023/03/21 05:44:11;;;;;;;32.63;19.70;;;;;;;;;;5053894;28;20372;-61
2023/03/21 05:46:37;;;;;;;32.22;20.50;;;;;;;;;;5053087;28;20055;-61
2023/03/21 05:49:03;;;;;;;33.50;20.30;;;;;;;;;;5053902;28;20089;-61
2023/03/21 05:51:29;;;;;;;32.17;19.60;;;;;;;;;;5054324;28;20080;-61
2023/03/21 05:53:55;;;;;;;34.72;21.13;;;;;;;;;;5053317;28;20041;-61
2023/03/21 05:56:21;;;;;;;34.42;19.25;;;;;;;;;;5054146;28;20122;-61
2023/03/21 05:58:47;;;;;;;33.97;20.55;;;;;;;;;;5054170;28;20040;-61
2023/03/21 06:01:13;;;;;;;32.03;20.42;;;;;;;;;;5053381;28;20053;-61
2023/03/21 06:03:40;;;;;;;32.90;20.48;;;;;;;;;;5051531;28;20047;-61
2023/03/21 06:06:06;;;;;;;34.30;20.60;;;;;;;;;;5050298;28;20044;-61
2023/03/21 06:08:32;;;;;;;32.85;19.92;;;;;;;;;;5052673;28;20052;-61
2023/03/21 06:10:58;;;;;;;30.45;18.80;;;;;;;;;;5053637;28;20128;-61
2023/03/21 06:13:24;;;;;;;35.17;20.35;;;;;;;;;;5053799;28;20045;-61
2023/03/21 06:15:50;;;;;;;33.35;19.35;;;;;;;;;;5052962;28;20041;-61
2023/03/21 06:18:16;;;;;;;37.15;21.38;;;;;;;;;;5053752;28;20549;-61
2023/03/21 06:20:42;;;;;;;37.72;21.70;;;;;;;;;;5053473;28;20071;-61
2023/03/21 06:23:09;;;;;;;33.38;19.95;;;;;;;;;;5052610;28;20399;-61
2023/03/21 06:25:35;;;;;;;35.00;21.27;;;;;;;;;;5052664;28;20048;-61
2023/03/21 06:28:01;;;;;;;36.17;20.98;;;;;;;;;;5053373;28;20135;-62
2023/03/21 06:30:27;;;;;;;39.03;22.48;;;;;;;;;;5052608;28;20509;-61
2023/03/21 06:32:54;;;;;;;36.58;20.75;;;;;;;;;;5052758;28;20044;-61
2023/03/21 06:35:20;;;;;;;33.60;21.10;;;;;;;;;;5053344;28;20051;-61
2023/03/21 06:37:48;;;;;;;36.45;21.65;;;;;;;;;;5052073;28;20521;-61
2023/03/21 06:40:14;;;;;;;36.63;19.40;;;;;;;;;;5052928;28;20124;-61
2023/03/21 06:42:40;;;;;;;36.28;19.70;;;;;;;;;;5053088;28;20052;-61
2023/03/21 06:45:06;;;;;;;32.63;18.67;;;;;;;;;;5052035;28;20080;-61
2023/03/21 06:47:32;;;;;;;32.22;18.02;;;;;;;;;;5053054;28;20037;-61
2023/03/21 06:49:58;;;;;;;34.35;18.23;;;;;;;;;;5052635;28;20601;-61
2023/03/21 06:52:24;;;;;;;26.48;15.95;;;;;;;;;;5052271;28;20052;-62
2023/03/21 06:54:50;;;;;;;27.38;16.95;;;;;;;;;;5052737;28;20041;-61
2023/03/21 06:57:18;;;;;;;20.67;13.52;;;;;;;;;;5051989;28;20043;-61
2023/03/21 06:59:45;;;;;;;22.90;13.82;;;;;;;;;;5051662;28;20044;-61
2023/03/21 07:02:11;;;;;;;25.73;12.75;;;;;;;;;;5052857;28;20052;-62
2023/03/21 07:04:37;;;;;;;20.88;12.85;;;;;;;;;;5052519;28;20044;-62
2023/03/21 07:07:03;;;;;;;18.02;12.30;;;;;;;;;;5051699;28;20769;-62
2023/03/21 07:09:29;;;;;;;18.38;11.10;;;;;;;;;;5052172;28;20048;-63
2023/03/21 07:11:55;;;;;;;18.17;11.35;;;;;;;;;;5051832;28;20045;-62
2023/03/21 07:14:22;;;;;;;18.55;12.07;;;;;;;;;;5051610;28;20549;-59
2023/03/21 07:16:48;;;;;;;20.08;11.82;;;;;;;;;;5052043;28;20491;-60
2023/03/21 07:19:15;;;;;;;18.77;12.23;;;;;;;;;;5051785;28;20045;-62
2023/03/21 07:21:41;;;;;;;19.70;12.48;;;;;;;;;;5033162;28;20478;-63
2023/03/21 07:24:07;;;;;;;17.45;12.43;;;;;;;;;;5052038;28;20052;-59
2023/03/21 07:26:33;;;;;;;17.05;11.70;;;;;;;;;;5051751;28;20044;-61
2023/03/21 07:28:59;;;;;;;18.23;12.38;;;;;;;;;;5051009;28;20037;-61
2023/03/21 07:31:25;;;;;;;19.23;12.15;;;;;;;;;;5051680;28;20387;-61
2023/03/21 07:33:52;;;;;;;17.77;11.75;;;;;;;;;;5041077;28;20044;-61
2023/03/21 07:36:18;;;;;;;19.80;13.52;;;;;;;;;;5051377;28;20059;-62
2023/03/21 07:38:45;;;;;;;18.40;13.13;;;;;;;;;;5051300;28;20041;-61
2023/03/21 07:41:11;;;;;;;22.98;14.18;;;;;;;;;;5051271;28;20053;-61
2023/03/21 07:43:37;;;;;;;20.05;14.25;;;;;;;;;;5051609;28;20041;-61
2023/03/21 07:46:03;;;;;;;21.77;14.52;;;;;;;;;;5050586;28;20045;-62
2023/03/21 07:48:29;;;;;;;22.30;13.90;;;;;;;;;;5051594;28;20044;-62
2023/03/21 07:50:56;;;;;;;24.02;15.10;;;;;;;;;;5051062;28;20578;-62
2023/03/21 07:53:22;;;;;;;24.83;16.13;;;;;;;;;;5050563;28;20428;-62
2023/03/21 07:55:54;;;;;;;22.17;14.73;;;;;;;;;;5048229;28;20040;-61
2023/03/21 07:58:20;;;;;;;21.60;14.43;;;;;;;;;;5050214;28;20059;-57
2023/03/21 08:00:47;;;;;;;20.67;13.38;;;;;;;;;;5047764;28;20429;-57
2023/03/21 08:03:13;;;;;;;20.52;13.27;;;;;;;;;;5050292;28;20091;-58
2023/03/21 08:05:40;;;;;;;25.65;14.75;;;;;;;;;;5050359;28;20077;-57
2023/03/21 08:08:06;;;;;;;20.17;12.95;;;;;;;;;;5048902;28;20049;-56
2023/03/21 08:10:33;;;;;;;19.75;12.70;;;;;;;;;;5049314;28;20057;-56
2023/03/21 08:12:59;;;;;;;19.10;13.57;;;;;;;;;;5032566;28;20128;-56
2023/03/21 08:15:25;;;;;;;21.23;13.43;;;;;;;;;;5048896;28;20112;-56
2023/03/21 08:17:51;;;;;;;16.65;12.13;;;;;;;;;;5048758;28;20045;-58
2023/03/21 08:20:20;;;;;;;19.48;13.07;;;;;;;;;;5049993;28;20045;-58
2023/03/21 08:22:46;;;;;;;18.58;13.25;;;;;;;;;;5048525;28;20060;-57
2023/03/21 08:25:13;;;;;;;21.20;12.80;;;;;;;;;;5049415;28;20084;-58
2023/03/21 08:27:40;;;;;;;19.60;12.50;;;;;;;;;;5049200;28;20078;-58
2023/03/21 08:30:06;;;;;;;19.50;12.70;;;;;;;;;;5048996;28;20102;-57
2023/03/21 08:32:32;;;;;;;20.92;13.07;;;;;;;;;;5049879;28;20159;-57
2023/03/21 08:34:59;;;;;;;23.88;14.38;;;;;;;;;;5046513;28;20045;-57
2023/03/21 08:37:25;;;;;;;24.58;14.30;;;;;;;;;;5050114;28;20137;-57
2023/03/21 08:39:52;;;;;;;27.85;14.90;;;;;;;;;;5031396;28;20099;-60
2023/03/21 08:42:18;;;;;;;23.85;14.45;;;;;;;;;;5049318;28;20163;-58
2023/03/21 08:44:44;;;;;;;25.42;15.45;;;;;;;;;;5049321;28;20047;-58
2023/03/21 08:47:10;;;;;;;24.75;15.38;;;;;;;;;;5019868;28;20055;-59
2023/03/21 08:49:36;;;;;;;27.98;15.43;;;;;;;;;;5049289;28;20060;-59
2023/03/21 08:52:03;;;;;;;25.00;15.27;;;;;;;;;;5048646;28;20037;-58
2023/03/21 08:54:29;;;;;;;26.23;15.50;;;;;;;;;;5049470;28;20040;-59
2023/03/21 08:56:55;;;;;;;25.35;15.40;;;;;;;;;;5049356;28;20459;-57
2023/03/21 08:59:21;;;;;;;27.88;16.38;;;;;;;;;;5048336;28;20047;-58
2023/03/21 09:01:47;;;;;;;30.58;16.55;;;;;;;;;;5048409;28;20682;-58
2023/03/21 09:04:13;;;;;;;28.38;17.45;;;;;;;;;;5049300;28;20032;-58
2023/03/21 09:06:46;;;;;;;29.02;17.88;;;;;;;;;;5048052;28;20069;-57
2023/03/21 09:09:13;;;;;;;37.78;18.80;;;;;;;;;;5047346;28;20130;-58
2023/03/21 09:11:39;;;;;;;35.13;18.83;;;;;;;;;;5048419;28;20383;-57
2023/03/21 09:14:05;;;;;;;36.65;19.50;;;;;;;;;;5048239;28;20057;-57
2023/03/21 09:16:31;;;;;;;32.72;20.17;;;;;;;;;;5049551;28;20167;-58
2023/03/21 09:18:57;;;;;;;32.67;19.35;;;;;;;;;;5048528;28;20383;-57
2023/03/21 09:21:24;;;;;;;37.65;19.08;;;;;;;;;;5048039;28;20509;-58
2023/03/21 09:23:55;;;;;;;41.22;21.35;;;;;;;;;;5049218;28;20651;-58
2023/03/21 09:26:22;;;;;;;33.15;19.42;;;;;;;;;;5049658;28;20640;-57
2023/03/21 09:28:49;;;;;;;34.92;19.70;;;;;;;;;;5048679;28;20182;-58
2023/03/21 09:31:20;;;;;;;33.42;18.40;;;;;;;;;;5049201;28;20041;-59
2023/03/21 09:33:46;;;;;;;37.10;18.98;;;;;;;;;;5049421;28;20041;-57
2023/03/21 09:36:17;;;;;;;37.38;19.35;;;;;;;;;;5048894;28;20419;-57
2023/03/21 09:38:44;;;;;;;36.08;18.98;;;;;;;;;;5041579;28;20041;-58
2023/03/21 09:41:33;;;;;;;35.60;18.70;;;;;;;;;;5047128;28;20033;-59
2023/03/21 09:44:03;;;;;;;39.85;19.45;;;;;;;;;;5037348;28;20075;-58
2023/03/21 09:46:29;;;;;;;42.28;20.15;;;;;;;;;;5049067;28;20036;-58
2023/03/21 09:48:58;;;;;;;34.17;18.42;;;;;;;;;;5048918;28;20080;-58
2023/03/21 09:51:33;;;;;;;34.97;19.65;;;;;;;;;;5048328;28;20045;-57
2023/03/21 09:54:02;;;;;;;36.83;18.55;;;;;;;;;;5048727;28;20041;-58
2023/03/21 09:56:30;;;;;;;32.92;18.55;;;;;;;;;;5049295;28;20084;-58
2023/03/21 09:58:58;;;;;;;34.47;18.33;;;;;;;;;;5048184;28;20081;-58
2023/03/21 10:01:28;;;;;;;33.05;16.60;;;;;;;;;;5048504;28;20045;-58
2023/03/21 10:03:55;;;;;;;39.25;18.63;;;;;;;;;;5048888;28;20070;-57
2023/03/21 10:06:27;;;;;;;33.65;17.77;;;;;;;;;;5048246;28;20061;-57
2023/03/21 10:08:55;;;;;;;35.38;18.35;;;;;;;;;;5048740;28;20083;-59
2023/03/21 10:11:26;;;;;;;30.58;17.25;;;;;;;;;;5046101;28;20099;-58
2023/03/21 10:14:00;;;;;;;34.03;17.88;;;;;;;;;;5044689;28;20115;-57
2023/03/21 10:16:28;;;;;;;34.58;18.20;;;;;;;;;;5060053;28;20375;-58
2023/03/21 10:18:55;;;;;;;38.60;18.42;;;;;;;;;;5048109;28;20029;-59
2023/03/21 10:21:22;;;;;;;34.40;19.30;;;;;;;;;;5040747;28;20053;-59
2023/03/21 10:23:50;;;;;;;31.02;17.77;;;;;;;;;;5033511;28;20419;-58
2023/03/21 10:26:17;;;;;;;34.65;17.77;;;;;;;;;;5052132;28;20052;-58
2023/03/21 10:28:45;;;;;;;31.88;17.88;;;;;;;;;;5049003;28;20048;-57
2023/03/21 10:31:14;;;;;;;28.08;16.90;;;;;;;;;;5051762;28;20053;-58
2023/03/21 10:33:43;;;;;;;34.80;17.40;;;;;;;;;;5051782;28;20079;-59
2023/03/21 10:36:30;;;;;;;32.50;16.58;;;;;;;;;;5050980;28;20094;-58
2023/03/21 10:38:59;;;;;;;28.90;17.15;;;;;;;;;;5048196;28;20490;-59
2023/03/21 10:41:25;;;;;;;34.13;17.58;;;;;;;;;;5056262;28;20048;-59
2023/03/21 10:44:06;;;;;;;37.33;17.63;;;;;;;;;;5052873;28;20048;-58
2023/03/21 10:46:32;;;;;;;26.70;16.38;;;;;;;;;;5051788;28;20040;-60
2023/03/21 10:48:58;;;;;;;30.60;16.63;;;;;;;;;;5050114;28;20059;-58
2023/03/21 10:51:30;;;;;;;34.28;16.95;;;;;;;;;;5051272;28;20053;-60
2023/03/21 10:54:03;;;;;;;29.02;15.68;;;;;;;;;;5050919;28;20069;-56
2023/03/21 10:56:32;;;;;;;32.70;16.50;;;;;;;;;;5050574;28;20071;-58
2023/03/21 10:58:59;;;;;;;29.40;16.13;;;;;;;;;;5050502;28;20115;-58
2023/03/21 11:01:29;;;;;;;30.48;15.85;;;;;;;;;;5043106;28;20048;-58
2023/03/21 11:03:59;;;;;;;34.55;16.98;;;;;;;;;;5046144;28;20040;-58
2023/03/21 11:06:26;;;;;;;27.88;16.33;;;;;;;;;;5044430;28;20045;-59
2023/03/21 11:08:56;;;;;;;27.85;15.07;;;;;;;;;;5051371;28;20124;-57
2023/03/21 11:11:28;;;;;;;30.92;16.20;;;;;;;;;;5050321;28;20071;-57
2023/03/21 11:14:05;;;;;;;25.73;14.10;;;;;;;;;;5050813;28;20055;-56
2023/03/21 11:16:36;;;;;;;28.88;14.68;;;;;;;;;;5045799;28;20487;-58
2023/03/21 11:19:11;;;;;;;26.67;14.35;;;;;;;;;;5032603;28;20037;-58
2023/03/21 11:21:37;;;;;;;28.65;15.35;;;;;;;;;;5050372;28;20064;-59
2023/03/21 11:24:05;;;;;;;22.77;14.20;;;;;;;;;;5050748;28;20049;-57
2023/03/21 11:26:35;;;;;;;27.95;14.15;;;;;;;;;;5050559;28;20102;-58
2023/03/21 11:29:09;;;;;;;27.58;15.10;;;;;;;;;;5045355;28;20539;-59
2023/03/21 11:31:39;;;;;;;24.63;12.98;;;;;;;;;;5051250;28;20045;-59
2023/03/21 11:34:06;;;;;;;24.17;13.18;;;;;;;;;;5049824;28;20051;-59
2023/03/21 11:36:35;;;;;;;27.50;13.57;;;;;;;;;;5051499;28;20116;-58
2023/03/21 11:39:23;;;;;;;28.08;13.45;;;;;;;;;;5051036;28;20099;-58
2023/03/21 11:41:51;;;;;;;17.95;12.40;;;;;;;;;;5049002;28;20044;-59
2023/03/21 11:44:30;;;;;;;20.70;11.38;;;;;;;;;;5051023;28;20044;-58
2023/03/21 11:46:56;;;;;;;15.82;10.48;;;;;;;;;;5049876;28;20106;-59
2023/03/21 11:49:23;;;;;;;18.15;10.23;;;;;;;;;;5047014;28;20120;-59
2023/03/21 11:52:04;;;;;;;22.13;11.85;;;;;;;;;;5048160;28;20459;-58
2023/03/21 11:54:33;;;;;;;21.75;10.80;;;;;;;;;;5049822;28;20076;-57
2023/03/21 11:57:05;;;;;;;21.40;12.10;;;;;;;;;;5049170;28;20037;-59
2023/03/21 11:59:31;;;;;;;19.65;10.63;;;;;;;;;;5043312;28;20041;-59
2023/03/21 12:02:24;;;;;;;22.17;10.40;;;;;;;;;;5039068;28;20041;-58
2023/03/21 12:04:59;;;;;;;16.13;10.07;;;;;;;;;;5046989;28;20570;-57
2023/03/21 12:07:30;;;;;;;17.67;9.98;;;;;;;;;;5050079;28;20099;-57
2023/03/21 12:10:22;;;;;;;19.30;10.32;;;;;;;;;;5047665;28;20045;-55
2023/03/21 12:13:06;;;;;;;16.85;8.68;;;;;;;;;;5048724;28;20111;-58
2023/03/21 12:15:38;;;;;;;19.92;9.00;;;;;;;;;;5051766;28;20187;-58
2023/03/21 12:18:04;;;;;;;14.55;8.15;;;;;;;;;;5051231;28;20475;-58
2023/03/21 12:20:49;;;;;;;16.27;7.68;;;;;;;;;;5049653;28;20045;-59
2023/03/21 12:23:15;;;;;;;13.43;7.78;;;;;;;;;;5048448;28;20132;-58
2023/03/21 12:25:45;;;;;;;20.45;8.02;;;;;;;;;;5048385;28;20134;-57
2023/03/21 12:28:14;;;;;;;13.68;8.13;;;;;;;;;;5049135;28;20037;-60
2023/03/21 12:30:59;;;;;;;14.50;8.18;;;;;;;;;;5045110;28;20075;-57
2023/03/21 12:33:32;;;;;;;16.38;8.38;;;;;;;;;;5047477;28;20041;-59
2023/03/21 12:35:59;;;;;;;14.73;9.02;;;;;;;;;;5049156;28;20037;-58
2023/03/21 12:38:32;;;;;;;17.60;8.82;;;;;;;;;;5047605;28;20048;-59
2023/03/21 12:41:07;;;;;;;20.20;9.40;;;;;;;;;;5041990;28;20033;-59
2023/03/21 12:43:54;;;;;;;16.92;9.13;;;;;;;;;;5050851;28;20033;-59
2023/03/21 12:46:33;;;;;;;16.25;9.35;;;;;;;;;;5039469;28;20057;-58
2023/03/21 12:49:09;;;;;;;19.52;8.57;;;;;;;;;;5048841;28;20036;-58
2023/03/21 12:51:43;;;;;;;18.08;8.85;;;;;;;;;;5049020;28;20037;-58
2023/03/21 12:54:36;;;;;;;17.85;9.27;;;;;;;;;;5048816;28;20040;-57
2023/03/21 12:57:02;;;;;;;14.30;9.40;;;;;;;;;;5023749;28;20115;-58
2023/03/21 12:59:41;;;;;;;16.95;9.18;;;;;;;;;;5055857;28;20538;-56
2023/03/21 13:02:26;;;;;;;13.65;8.77;;;;;;;;;;5011530;28;20056;-57
2023/03/21 13:04:56;;;;;;;13.85;9.30;;;;;;;;;;5046843;28;20044;-58
2023/03/21 13:07:24;;;;;;;18.42;8.43;;;;;;;;;;5049397;28;20132;-58
2023/03/21 13:09:50;;;;;;;21.20;8.65;;;;;;;;;;5048133;28;20047;-58
2023/03/21 13:12:31;;;;;;;15.35;8.02;;;;;;;;;;5049309;28;20055;-57
2023/03/21 13:15:07;;;;;;;17.45;8.13;;;;;;;;;;5042131;28;20041;-57
2023/03/21 13:17:42;;;;;;;18.60;9.10;;;;;;;;;;5048478;28;20045;-57
2023/03/21 13:20:28;;;;;;;14.02;7.97;;;;;;;;;;5044979;28;20033;-57
2023/03/21 13:22:54;;;;;;;12.65;8.55;;;;;;;;;;5048617;28;20064;-58
2023/03/21 13:25:22;;;;;;;14.23;7.88;;;;;;;;;;5047514;28;20488;-58
2023/03/21 13:27:52;;;;;;;14.95;7.90;;;;;;;;;;5048965;28;20044;-58
2023/03/21 13:30:25;;;;;;;19.77;8.02;;;;;;;;;;5048946;28;20069;-57
2023/03/21 13:32:55;;;;;;;12.75;7.90;;;;;;;;;;5047881;28;20517;-58
2023/03/21 13:35:26;;;;;;;16.00;7.85;;;;;;;;;;5048360;28;20037;-58
2023/03/21 13:37:55;;;;;;;14.25;7.72;;;;;;;;;;5048409;28;20041;-58
2023/03/21 13:40:21;;;;;;;18.27;8.40;;;;;;;;;;5048423;28;20615;-58
2023/03/21 13:42:51;;;;;;;16.70;7.88;;;;;;;;;;5048192;28;20819;-58
2023/03/21 13:45:43;;;;;;;14.13;8.32;;;;;;;;;;5048364;28;20616;-59
2023/03/21 13:48:26;;;;;;;13.00;7.32;;;;;;;;;;5042116;28;20368;-59
2023/03/21 13:50:59;;;;;;;12.77;7.38;;;;;;;;;;5047811;28;20045;-57
2023/03/21 13:53:29;;;;;;;15.73;8.13;;;;;;;;;;5047296;28;20043;-58
2023/03/21 13:56:00;;;;;;;13.60;7.75;;;;;;;;;;5048064;28;20033;-59
2023/03/21 13:58:39;;;;;;;15.27;7.97;;;;;;;;;;5048719;28;20032;-58
2023/03/21 14:01:22;;;;;;;13.02;7.82;;;;;;;;;;5050669;28;20040;-59
2023/03/21 14:03:48;;;;;;;16.10;8.05;;;;;;;;;;5051373;28;20041;-59
2023/03/21 14:06:16;;;;;;;15.15;7.80;;;;;;;;;;5051584;28;20041;-59
2023/03/21 14:08:44;;;;;;;10.77;8.23;;;;;;;;;;5051973;28;20041;-59
2023/03/21 14:11:13;;;;;;;16.67;8.10;;;;;;;;;;5052470;28;20045;-59
2023/03/21 14:13:41;;;;;;;17.13;8.48;;;;;;;;;;5051091;28;20120;-59
2023/03/21 14:16:15;;;;;;;14.98;8.13;;;;;;;;;;5051798;28;20041;-59
2023/03/21 14:18:45;;;;;;;16.38;7.60;;;;;;;;;;5052165;28;20084;-56
2023/03/21 14:21:16;;;;;;;12.32;7.18;;;;;;;;;;5034564;28;20429;-58
2023/03/21 14:23:42;;;;;;;16.38;7.53;;;;;;;;;;5041785;28;20085;-58
2023/03/21 14:26:10;;;;;;;14.68;7.53;;;;;;;;;;5051693;28;20511;-58
2023/03/21 14:28:36;;;;;;;18.10;7.47;;;;;;;;;;5051480;28;20464;-57
2023/03/21 14:31:03;;;;;;;17.85;7.78;;;;;;;;;;5050855;28;20758;-58
2023/03/21 14:33:32;;;;;;;19.88;8.35;;;;;;;;;;5041026;28;20191;-59